createdAt,value
2018-07-23T00:01:21.955Z,17.80
2018-07-23T00:03:26.369Z,17.70
2018-07-23T00:05:31.070Z,17.70
2018-07-23T00:07:35.633Z,17.70
2018-07-23T00:09:39.670Z,17.80
2018-07-23T00:11:43.689Z,17.70
2018-07-23T00:13:47.637Z,17.50
2018-07-23T00:15:51.921Z,17.60
2018-07-23T00:17:56.522Z,17.70
2018-07-23T00:20:01.138Z,17.60
2018-07-23T00:22:05.109Z,17.70
2018-07-23T00:24:09.409Z,17.70
2018-07-23T00:26:13.409Z,17.60
2018-07-23T00:28:17.649Z,17.60
2018-07-23T00:30:21.622Z,17.40
2018-07-23T00:32:26.173Z,17.30
2018-07-23T00:34:30.397Z,17.30
2018-07-23T00:36:34.728Z,17.30
2018-07-23T00:38:39.021Z,17.30
2018-07-23T00:40:43.312Z,17.40
2018-07-23T00:42:47.701Z,17.30
2018-07-23T00:44:51.984Z,17.20
2018-07-23T00:46:56.589Z,17.10
2018-07-23T00:49:00.933Z,17.00
2018-07-23T00:51:05.181Z,17.10
2018-07-23T00:53:09.402Z,17.10
2018-07-23T00:55:13.721Z,17.10
2018-07-23T00:57:18.039Z,17.10
2018-07-23T00:59:22.325Z,17.10
2018-07-23T01:01:26.608Z,17.10
2018-07-23T01:03:30.912Z,17.00
2018-07-23T01:05:37.589Z,17.10
2018-07-23T01:07:41.557Z,17.10
2018-07-23T01:09:45.842Z,16.90
2018-07-23T01:13:54.078Z,16.90
2018-07-23T01:15:58.662Z,17.00
2018-07-23T01:18:02.897Z,16.90
2018-07-23T01:20:07.356Z,17.00
2018-07-23T01:22:11.579Z,17.00
2018-07-23T01:24:15.525Z,16.90
2018-07-23T01:26:19.909Z,16.90
2018-07-23T01:28:23.904Z,16.90
2018-07-23T01:30:27.896Z,17.00
2018-07-23T01:32:32.057Z,17.10
2018-07-23T01:34:36.009Z,17.10
2018-07-23T01:36:40.245Z,17.10
2018-07-23T01:38:44.847Z,17.00
2018-07-23T01:40:49.136Z,16.90
2018-07-23T01:44:57.353Z,17.00
2018-07-23T01:47:01.794Z,17.00
2018-07-23T01:49:06.453Z,16.90
2018-07-23T01:51:10.461Z,16.90
2018-07-23T01:53:14.448Z,16.90
2018-07-23T01:55:18.741Z,16.80
2018-07-23T01:57:23.041Z,16.80
2018-07-23T01:59:27.340Z,16.80
2018-07-23T02:01:31.943Z,16.80
2018-07-23T02:03:36.089Z,16.80
2018-07-23T02:05:41.081Z,16.90
2018-07-23T02:07:45.381Z,16.80
2018-07-23T02:09:49.781Z,16.70
2018-07-23T02:11:54.665Z,16.70
2018-07-23T02:13:59.004Z,16.60
2018-07-23T02:16:03.378Z,16.60
2018-07-23T02:18:07.739Z,16.70
2018-07-23T02:20:12.579Z,16.60
2018-07-23T02:22:16.997Z,16.60
2018-07-23T02:24:21.616Z,16.70
2018-07-23T02:26:25.930Z,16.60
2018-07-23T02:28:30.372Z,16.60
2018-07-23T02:30:34.651Z,16.70
2018-07-23T02:32:39.055Z,16.60
2018-07-23T02:34:43.084Z,16.50
2018-07-23T02:36:47.284Z,16.50
2018-07-23T02:38:51.621Z,16.60
2018-07-23T02:40:56.217Z,16.60
2018-07-23T02:43:00.647Z,16.50
2018-07-23T02:45:05.205Z,16.60
2018-07-23T02:47:10.084Z,16.50
2018-07-23T02:49:14.498Z,16.50
2018-07-23T02:51:19.097Z,16.40
2018-07-23T02:53:23.743Z,16.50
2018-07-23T02:55:28.149Z,16.40
2018-07-23T02:57:32.629Z,16.30
2018-07-23T02:59:36.907Z,16.30
2018-07-23T03:01:41.389Z,16.30
2018-07-23T03:03:45.901Z,16.30
2018-07-23T03:05:50.131Z,16.20
2018-07-23T03:07:54.466Z,16.30
2018-07-23T03:09:59.057Z,16.30
2018-07-23T03:12:03.334Z,16.20
2018-07-23T03:14:07.604Z,16.20
2018-07-23T03:16:11.897Z,16.30
2018-07-23T03:18:16.483Z,16.40
2018-07-23T03:20:20.726Z,16.30
2018-07-23T03:22:25.333Z,16.40
2018-07-23T03:24:29.813Z,16.30
2018-07-23T03:26:34.082Z,16.20
2018-07-23T03:28:38.910Z,16.30
2018-07-23T03:30:43.223Z,16.30
2018-07-23T03:32:47.393Z,16.40
2018-07-23T03:34:51.674Z,16.40
2018-07-23T03:36:56.422Z,16.40
2018-07-23T03:39:01.503Z,16.30
2018-07-23T03:41:05.777Z,16.40
2018-07-23T03:43:10.963Z,16.40
2018-07-23T03:45:14.996Z,16.40
2018-07-23T03:47:19.241Z,16.40
2018-07-23T03:49:23.487Z,16.50
2018-07-23T03:51:28.073Z,16.50
2018-07-23T03:55:36.229Z,16.50
2018-07-23T03:57:40.886Z,16.50
2018-07-23T03:59:45.580Z,16.50
2018-07-23T04:01:49.852Z,16.50
2018-07-23T04:03:54.526Z,16.60
2018-07-23T04:05:59.127Z,16.60
2018-07-23T04:08:10.439Z,16.70
2018-07-23T04:10:15.052Z,16.70
2018-07-23T04:12:19.705Z,16.70
2018-07-23T04:14:24.069Z,16.70
2018-07-23T04:16:28.717Z,16.70
2018-07-23T04:18:33.045Z,16.70
2018-07-23T04:20:37.293Z,16.70
2018-07-23T04:22:41.546Z,16.80
2018-07-23T04:24:45.865Z,16.80
2018-07-23T04:26:51.139Z,16.70
2018-07-23T04:30:59.854Z,17.00
2018-07-23T04:33:04.585Z,17.00
2018-07-23T04:35:08.833Z,17.00
2018-07-23T04:37:13.433Z,17.10
2018-07-23T04:39:17.680Z,17.10
2018-07-23T04:41:21.997Z,17.00
2018-07-23T04:43:26.498Z,17.10
2018-07-23T04:45:31.081Z,17.20
2018-07-23T04:47:35.655Z,17.20
2018-07-23T04:49:40.216Z,17.20
2018-07-23T04:51:44.805Z,17.30
2018-07-23T04:53:49.062Z,17.30
2018-07-23T04:55:53.977Z,17.30
2018-07-23T04:57:58.586Z,17.40
2018-07-23T05:00:02.889Z,17.30
2018-07-23T05:02:07.254Z,17.40
2018-07-23T05:04:12.345Z,17.40
2018-07-23T05:06:16.613Z,17.50
2018-07-23T05:08:21.067Z,17.50
2018-07-23T05:10:25.509Z,17.60
2018-07-23T05:12:30.133Z,17.70
2018-07-23T05:14:34.749Z,17.70
2018-07-23T05:16:39.032Z,17.70
2018-07-23T05:18:43.315Z,17.80
2018-07-23T05:20:47.538Z,17.90
2018-07-23T05:22:51.856Z,17.90
2018-07-23T05:24:56.166Z,17.90
2018-07-23T05:27:00.475Z,17.90
2018-07-23T05:29:04.749Z,18.00
2018-07-23T05:33:12.917Z,18.20
2018-07-23T05:37:21.263Z,18.20
2018-07-23T05:39:25.871Z,18.20
2018-07-23T05:41:30.287Z,18.30
2018-07-23T05:43:34.533Z,18.40
2018-07-23T05:45:39.145Z,18.30
2018-07-23T05:47:43.741Z,18.30
2018-07-23T05:49:47.981Z,18.40
2018-07-23T05:51:52.217Z,18.40
2018-07-23T05:53:56.455Z,18.50
2018-07-23T05:56:00.974Z,18.40
2018-07-23T05:58:05.715Z,18.50
2018-07-23T06:00:10.015Z,18.60
2018-07-23T06:02:15.425Z,18.60
2018-07-23T06:04:19.994Z,18.70
2018-07-23T06:06:24.461Z,18.60
2018-07-23T06:08:28.917Z,18.70
2018-07-23T06:10:33.265Z,18.70
2018-07-23T06:12:37.870Z,18.80
2018-07-23T06:14:42.322Z,18.80
2018-07-23T06:16:46.585Z,18.80
2018-07-23T06:18:50.925Z,19.00
2018-07-23T06:20:55.178Z,19.10
2018-07-23T06:22:59.843Z,19.20
2018-07-23T06:25:04.418Z,19.40
2018-07-23T06:29:12.652Z,19.40
2018-07-23T06:31:17.129Z,19.40
2018-07-23T06:33:22.027Z,19.50
2018-07-23T06:35:26.589Z,19.50
2018-07-23T06:39:35.510Z,19.30
2018-07-23T06:41:40.945Z,19.30
2018-07-23T06:43:45.216Z,19.40
2018-07-23T06:45:49.777Z,19.50
2018-07-23T06:47:54.529Z,19.70
2018-07-23T06:52:02.953Z,19.80
2018-07-23T06:54:07.420Z,20.00
2018-07-23T06:56:11.544Z,20.00
2018-07-23T06:58:15.806Z,20.30
2018-07-23T07:00:20.071Z,20.30
2018-07-23T07:04:28.229Z,20.20
2018-07-23T07:06:32.508Z,20.10
2018-07-23T07:08:37.266Z,20.20
2018-07-23T07:12:45.413Z,20.10
2018-07-23T07:14:50.048Z,20.10
2018-07-23T07:16:54.909Z,20.10
2018-07-23T07:18:59.175Z,20.20
2018-07-23T07:21:04.006Z,20.30
2018-07-23T07:23:08.446Z,20.40
2018-07-23T07:25:12.885Z,20.20
2018-07-23T07:27:17.573Z,20.10
2018-07-23T07:29:22.364Z,20.30
2018-07-23T07:31:26.606Z,20.50
2018-07-23T07:33:31.018Z,20.60
2018-07-23T07:35:35.277Z,20.80
2018-07-23T07:37:39.561Z,20.90
2018-07-23T07:39:43.805Z,20.90
2018-07-23T07:41:48.081Z,21.00
2018-07-23T07:43:52.705Z,21.00
2018-07-23T07:45:56.990Z,21.00
2018-07-23T07:48:01.325Z,21.10
2018-07-23T07:50:06.277Z,21.00
2018-07-23T07:52:10.530Z,20.90
2018-07-23T07:54:14.777Z,21.00
2018-07-23T07:56:19.010Z,21.10
2018-07-23T07:58:23.593Z,21.10
2018-07-23T08:00:28.301Z,21.00
2018-07-23T08:02:32.553Z,21.30
2018-07-23T08:04:36.823Z,21.50
2018-07-23T08:06:41.065Z,21.80
2018-07-23T08:08:45.549Z,21.50
2018-07-23T08:10:50.287Z,21.60
2018-07-23T08:12:55.681Z,21.70
2018-07-23T08:14:59.914Z,21.90
2018-07-23T08:17:04.147Z,21.80
2018-07-23T08:19:08.477Z,21.90
2018-07-23T08:21:12.933Z,21.80
2018-07-23T08:23:17.157Z,21.80
2018-07-23T08:25:21.393Z,21.80
2018-07-23T08:27:25.993Z,21.80
2018-07-23T08:29:30.963Z,21.90
2018-07-23T08:31:35.262Z,22.00
2018-07-23T08:33:39.686Z,21.90
2018-07-23T08:35:44.089Z,22.10
2018-07-23T08:39:55.429Z,22.30
2018-07-23T08:42:00.079Z,22.20
2018-07-23T08:44:04.357Z,22.10
2018-07-23T08:46:08.957Z,22.10
2018-07-23T08:48:13.318Z,21.90
2018-07-23T08:50:17.909Z,22.00
2018-07-23T08:52:22.137Z,22.10
2018-07-23T08:54:26.705Z,22.20
2018-07-23T08:56:31.008Z,22.30
2018-07-23T08:58:35.304Z,22.30
2018-07-23T09:00:39.546Z,22.00
2018-07-23T09:02:43.517Z,21.80
2018-07-23T09:04:48.102Z,21.70
2018-07-23T09:06:52.491Z,21.80
2018-07-23T09:11:00.745Z,22.00
2018-07-23T09:13:05.023Z,22.00
2018-07-23T09:15:09.915Z,22.10
2018-07-23T09:17:14.154Z,22.10
2018-07-23T09:19:18.589Z,22.00
2018-07-23T09:21:22.850Z,22.10
2018-07-23T09:23:27.061Z,22.20
2018-07-23T09:25:36.629Z,22.30
2018-07-23T09:27:40.961Z,22.30
2018-07-23T09:29:45.204Z,22.20
2018-07-23T09:31:49.813Z,22.10
2018-07-23T09:33:54.036Z,22.30
2018-07-23T09:35:58.589Z,22.30
2018-07-23T09:38:02.824Z,22.30
2018-07-23T09:40:07.415Z,22.30
2018-07-23T09:42:11.677Z,22.30
2018-07-23T09:44:15.957Z,22.20
2018-07-23T09:46:20.562Z,22.40
2018-07-23T09:48:24.797Z,22.50
2018-07-23T09:52:32.928Z,22.60
2018-07-23T09:56:41.836Z,22.60
2018-07-23T09:58:46.079Z,22.60
2018-07-23T10:00:54.482Z,22.60
2018-07-23T10:02:58.810Z,22.70
2018-07-23T10:05:03.305Z,23.10
2018-07-23T10:07:07.869Z,23.30
2018-07-23T10:09:12.392Z,23.20
2018-07-23T10:11:16.682Z,23.30
2018-07-23T10:13:21.039Z,23.50
2018-07-23T10:15:25.265Z,23.40
2018-07-23T10:17:29.663Z,23.40
2018-07-23T10:19:33.903Z,23.30
2018-07-23T10:21:38.125Z,23.40
2018-07-23T10:23:42.389Z,23.30
2018-07-23T10:25:46.685Z,23.20
2018-07-23T10:27:50.985Z,23.20
2018-07-23T10:29:55.244Z,23.20
2018-07-23T10:31:59.492Z,23.20
2018-07-23T10:34:03.726Z,23.30
2018-07-23T10:36:08.009Z,23.40
2018-07-23T10:38:11.977Z,23.30
2018-07-23T10:40:16.197Z,23.40
2018-07-23T10:42:21.192Z,23.30
2018-07-23T10:44:25.461Z,23.30
2018-07-23T10:46:30.038Z,23.60
2018-07-23T10:48:34.293Z,23.80
2018-07-23T10:50:38.514Z,24.00
2018-07-23T10:52:43.682Z,23.80
2018-07-23T10:54:47.929Z,23.70
2018-07-23T10:56:52.505Z,23.80
2018-07-23T10:58:56.821Z,23.90
2018-07-23T11:01:01.941Z,24.10
2018-07-23T11:05:10.885Z,24.20
2018-07-23T11:07:15.380Z,24.10
2018-07-23T11:09:20.118Z,23.80
2018-07-23T11:13:28.287Z,23.90
2018-07-23T11:15:32.505Z,23.90
2018-07-23T11:17:37.309Z,24.10
2018-07-23T11:19:41.590Z,24.40
2018-07-23T11:23:50.122Z,24.60
2018-07-23T11:25:54.361Z,24.80
2018-07-23T11:27:58.709Z,24.90
2018-07-23T11:30:03.144Z,24.70
2018-07-23T11:32:07.463Z,24.60
2018-07-23T11:34:11.849Z,24.90
2018-07-23T11:36:16.107Z,24.80
2018-07-23T11:38:20.666Z,25.10
2018-07-23T11:40:25.231Z,25.40
2018-07-23T11:44:33.653Z,25.20
2018-07-23T11:48:41.769Z,25.20
2018-07-23T11:50:46.377Z,26.00
2018-07-23T11:52:50.796Z,26.30
2018-07-23T11:54:55.704Z,25.90
2018-07-23T11:57:00.590Z,25.80
2018-07-23T11:59:05.323Z,25.40
2018-07-23T12:01:09.773Z,25.40
2018-07-23T12:05:17.614Z,25.70
2018-07-23T12:09:25.757Z,25.50
2018-07-23T12:11:30.007Z,25.80
2018-07-23T12:13:34.856Z,26.40
2018-07-23T12:15:39.124Z,26.50
2018-07-23T12:17:43.695Z,26.40
2018-07-23T12:19:48.277Z,26.70
2018-07-23T12:21:52.546Z,27.60
2018-07-23T12:23:57.109Z,27.70
2018-07-23T12:26:01.386Z,27.70
2018-07-23T12:28:06.153Z,27.80
2018-07-23T12:30:10.135Z,27.50
2018-07-23T12:32:14.450Z,27.50
2018-07-23T12:34:18.905Z,27.70
2018-07-23T12:36:23.157Z,28.50
2018-07-23T12:38:27.369Z,28.70
2018-07-23T12:40:31.692Z,28.10
2018-07-23T12:42:37.498Z,28.50
2018-07-23T12:44:42.317Z,28.80
2018-07-23T12:46:47.117Z,28.90
2018-07-23T12:48:52.280Z,29.40
2018-07-23T12:50:57.216Z,28.80
2018-07-23T12:53:01.992Z,28.70
2018-07-23T12:55:07.669Z,28.40
2018-07-23T12:57:12.794Z,28.30
2018-07-23T12:59:17.604Z,29.00
2018-07-23T13:01:22.411Z,29.30
2018-07-23T13:03:27.232Z,28.80
2018-07-23T13:05:33.340Z,29.50
2018-07-23T13:07:38.147Z,29.50
2018-07-23T13:09:43.189Z,29.00
2018-07-23T13:11:47.997Z,28.80
2018-07-23T13:13:52.256Z,28.10
2018-07-23T13:15:56.505Z,27.90
2018-07-23T13:18:00.828Z,27.20
2018-07-23T13:20:05.234Z,27.40
2018-07-23T13:22:09.805Z,27.50
2018-07-23T13:24:14.731Z,27.30
2018-07-23T13:26:19.692Z,27.30
2018-07-23T13:28:23.993Z,27.40
2018-07-23T13:30:28.353Z,27.70
2018-07-23T13:32:32.530Z,27.70
2018-07-23T13:34:36.774Z,27.70
2018-07-23T13:36:41.089Z,27.70
2018-07-23T13:38:45.679Z,27.60
2018-07-23T13:40:49.997Z,27.40
2018-07-23T13:42:54.352Z,27.10
2018-07-23T13:44:58.651Z,26.90
2018-07-23T13:47:02.878Z,27.00
2018-07-23T13:49:07.505Z,26.80
2018-07-23T13:51:12.065Z,26.70
2018-07-23T13:53:16.317Z,26.80
2018-07-23T13:55:20.583Z,26.70
2018-07-23T14:01:33.146Z,26.80
2018-07-23T14:03:37.407Z,27.00
2018-07-23T14:05:41.657Z,27.00
2018-07-23T14:07:45.907Z,26.90
2018-07-23T14:09:50.997Z,27.00
2018-07-23T14:11:55.795Z,27.60
2018-07-23T14:14:00.354Z,27.50
2018-07-23T14:16:04.913Z,27.70
2018-07-23T14:18:09.161Z,28.40
2018-07-23T14:20:13.745Z,29.20
2018-07-23T14:22:18.119Z,29.10
2018-07-23T14:24:22.815Z,28.90
2018-07-23T14:26:27.096Z,29.20
2018-07-23T14:28:31.341Z,29.30
2018-07-23T14:30:35.913Z,29.40
2018-07-23T14:32:40.827Z,29.50
2018-07-23T14:34:45.605Z,29.70
2018-07-23T14:36:50.061Z,30.10
2018-07-23T14:38:54.858Z,29.90
2018-07-23T14:40:59.730Z,30.10
2018-07-23T14:43:04.514Z,30.50
2018-07-23T14:45:09.281Z,29.80
2018-07-23T14:47:14.069Z,30.30
2018-07-23T14:49:18.990Z,30.80
2018-07-23T14:51:23.556Z,30.90
2018-07-23T14:53:28.403Z,31.10
2018-07-23T14:55:33.226Z,30.90
2018-07-23T14:57:38.021Z,31.20
2018-07-23T14:59:43.324Z,31.00
2018-07-23T15:01:48.134Z,30.80
2018-07-23T15:03:52.977Z,30.40
2018-07-23T15:05:58.001Z,30.90
2018-07-23T15:08:03.196Z,31.90
2018-07-23T15:10:08.380Z,32.90
2018-07-23T15:12:13.558Z,33.30
2018-07-23T15:14:18.181Z,32.90
2018-07-23T15:16:22.989Z,32.50
2018-07-23T15:18:27.217Z,33.10
2018-07-23T15:20:31.472Z,33.30
2018-07-23T15:22:36.812Z,33.70
2018-07-23T15:24:41.386Z,33.90
2018-07-23T15:26:47.546Z,33.00
2018-07-23T15:28:52.361Z,32.80
2018-07-23T15:30:57.465Z,32.30
2018-07-23T15:33:02.560Z,32.30
2018-07-23T15:37:11.877Z,32.30
2018-07-23T15:39:16.775Z,31.80
2018-07-23T15:41:21.921Z,31.40
2018-07-23T15:43:26.705Z,31.90
2018-07-23T15:45:31.657Z,32.70
2018-07-23T15:47:36.628Z,32.80
2018-07-23T15:49:41.681Z,31.90
2018-07-23T15:51:46.822Z,31.70
2018-07-23T15:53:51.613Z,31.70
2018-07-23T15:55:56.384Z,31.40
2018-07-23T15:58:01.168Z,31.40
2018-07-23T16:02:10.365Z,32.20
2018-07-23T16:04:15.184Z,32.10
2018-07-23T16:06:20.302Z,32.50
2018-07-23T16:08:25.115Z,32.60
2018-07-23T16:10:30.230Z,32.60
2018-07-23T16:12:35.009Z,32.50
2018-07-23T16:14:40.101Z,32.30
2018-07-23T16:16:45.137Z,31.80
2018-07-23T16:18:50.321Z,31.70
2018-07-23T16:20:55.293Z,31.60
2018-07-23T16:23:00.437Z,31.40
2018-07-23T16:25:06.298Z,31.40
2018-07-23T16:27:11.301Z,31.50
2018-07-23T16:29:16.157Z,32.00
2018-07-23T16:31:21.045Z,32.40
2018-07-23T16:33:25.849Z,32.50
2018-07-23T16:35:30.991Z,32.50
2018-07-23T16:37:35.788Z,32.70
2018-07-23T16:39:40.570Z,32.70
2018-07-23T16:41:45.417Z,32.90
2018-07-23T16:43:50.625Z,33.30
2018-07-23T16:45:55.230Z,32.50
2018-07-23T16:47:59.789Z,32.30
2018-07-23T16:50:04.529Z,32.20
2018-07-23T16:52:08.745Z,32.20
2018-07-23T16:54:13.326Z,31.80
2018-07-23T16:56:17.795Z,31.70
2018-07-23T16:58:22.103Z,31.80
2018-07-23T17:00:26.872Z,32.20
2018-07-23T17:02:31.128Z,32.70
2018-07-23T17:04:35.705Z,32.50
2018-07-23T17:06:40.020Z,32.40
2018-07-23T17:08:44.413Z,32.20
2018-07-23T17:10:48.664Z,32.30
2018-07-23T17:12:53.682Z,32.70
2018-07-23T17:14:58.250Z,32.60
2018-07-23T17:19:06.768Z,32.20
2018-07-23T17:21:11.329Z,32.50
2018-07-23T17:23:15.632Z,32.60
2018-07-23T17:25:19.917Z,32.60
2018-07-23T17:27:24.272Z,32.50
2018-07-23T17:29:28.857Z,32.30
2018-07-23T17:31:33.129Z,32.50
2018-07-23T17:33:37.705Z,32.40
2018-07-23T17:35:41.955Z,31.70
2018-07-23T17:37:46.240Z,31.40
2018-07-23T17:39:51.001Z,31.10
2018-07-23T17:41:55.265Z,31.60
2018-07-23T17:43:59.534Z,31.70
2018-07-23T17:46:03.825Z,31.90
2018-07-23T17:48:08.761Z,31.90
2018-07-23T17:50:13.356Z,31.70
2018-07-23T17:52:17.586Z,31.60
2018-07-23T17:54:21.888Z,31.50
2018-07-23T17:56:26.457Z,31.40
2018-07-23T17:58:31.120Z,31.30
2018-07-23T18:00:35.701Z,31.10
2018-07-23T18:02:40.475Z,31.00
2018-07-23T18:04:44.690Z,31.10
2018-07-23T18:06:49.000Z,31.00
2018-07-23T18:10:57.703Z,31.00
2018-07-23T18:13:02.459Z,31.00
2018-07-23T18:15:06.902Z,31.30
2018-07-23T18:17:11.005Z,31.20
2018-07-23T18:19:15.585Z,30.60
2018-07-23T18:21:19.825Z,30.30
2018-07-23T18:23:24.126Z,30.20
2018-07-23T18:25:28.665Z,29.90
2018-07-23T18:27:33.265Z,29.10
2018-07-23T18:29:37.574Z,29.10
2018-07-23T18:31:41.803Z,29.10
2018-07-23T18:33:46.066Z,28.80
2018-07-23T18:35:50.521Z,28.40
2018-07-23T18:37:54.786Z,28.00
2018-07-23T18:39:58.918Z,28.10
2018-07-23T18:42:03.174Z,28.00
2018-07-23T18:44:08.509Z,27.90
2018-07-23T18:46:13.218Z,28.10
2018-07-23T18:49:33.893Z,27.90
2018-07-23T18:51:48.549Z,27.90
2018-07-23T18:53:52.791Z,27.80
2018-07-23T18:55:57.710Z,27.90
2018-07-23T18:58:01.679Z,27.70
2018-07-23T19:02:11.583Z,27.70
2018-07-23T19:04:16.401Z,27.70
2018-07-23T19:06:20.702Z,27.70
2018-07-23T19:08:25.064Z,27.70
2018-07-23T19:10:29.518Z,27.30
2018-07-23T19:12:34.466Z,27.00
2018-07-23T19:14:39.037Z,26.90
2018-07-23T19:16:43.608Z,26.70
2018-07-23T19:18:48.173Z,26.40
2018-07-23T19:20:52.789Z,26.00
2018-07-23T19:22:57.037Z,25.80
2018-07-23T19:25:01.083Z,25.60
2018-07-23T19:27:05.842Z,25.60
2018-07-23T19:29:10.314Z,25.50
2018-07-23T19:31:14.740Z,25.30
2018-07-23T19:35:23.335Z,25.40
2018-07-23T19:37:28.365Z,25.30
2018-07-23T19:39:32.971Z,25.30
2018-07-23T19:41:37.756Z,25.00
2018-07-23T19:43:42.213Z,25.00
2018-07-23T19:45:46.494Z,24.80
2018-07-23T19:47:50.861Z,24.70
2018-07-23T19:49:55.318Z,24.90
2018-07-23T19:51:59.530Z,25.00
2018-07-23T19:54:04.036Z,25.20
2018-07-23T19:58:13.245Z,25.00
2018-07-23T20:00:18.226Z,24.90
2018-07-23T20:02:22.516Z,24.80
2018-07-23T20:04:27.133Z,24.80
2018-07-23T20:06:31.722Z,24.70
2018-07-23T20:08:35.985Z,24.80
2018-07-23T20:10:40.232Z,24.80
2018-07-23T20:12:44.513Z,24.60
2018-07-23T20:14:49.115Z,24.30
2018-07-23T20:16:53.365Z,24.30
2018-07-23T20:18:57.638Z,24.50
2018-07-23T20:21:02.197Z,24.50
2018-07-23T20:23:06.480Z,24.40
2018-07-23T20:25:10.818Z,24.30
2018-07-23T20:27:15.089Z,24.20
2018-07-23T20:29:19.423Z,24.40
2018-07-23T20:31:23.690Z,24.40
2018-07-23T20:33:27.952Z,24.30
2018-07-23T20:35:32.180Z,24.20
2018-07-23T20:37:36.809Z,24.20
2018-07-23T20:39:41.173Z,24.10
2018-07-23T20:41:45.614Z,23.80
2018-07-23T20:43:49.766Z,23.80
2018-07-23T20:45:54.328Z,23.70
2018-07-23T20:47:59.341Z,23.90
2018-07-23T20:50:03.955Z,24.00
2018-07-23T20:52:08.204Z,23.90
2018-07-23T20:54:12.773Z,24.10
2018-07-23T20:56:17.037Z,24.10
2018-07-23T20:58:21.609Z,24.00
2018-07-23T21:02:30.773Z,24.20
2018-07-23T21:04:34.804Z,24.30
2018-07-23T21:06:38.763Z,24.40
2018-07-23T21:08:42.818Z,24.40
2018-07-23T21:10:46.990Z,24.20
2018-07-23T21:12:51.569Z,24.10
2018-07-23T21:14:56.161Z,24.10
2018-07-23T21:17:00.766Z,24.10
2018-07-23T21:19:05.202Z,24.10
2018-07-23T21:21:09.781Z,24.00
2018-07-23T21:23:14.689Z,24.00
2018-07-23T21:25:18.987Z,23.90
2018-07-23T21:27:23.705Z,23.60
2018-07-23T21:29:27.974Z,23.70
2018-07-23T21:33:36.528Z,23.80
2018-07-23T21:35:40.791Z,23.70
2018-07-23T21:37:45.434Z,23.70
2018-07-23T21:39:49.659Z,23.80
2018-07-23T21:41:53.977Z,23.70
2018-07-23T21:43:58.222Z,23.70
2018-07-23T21:46:02.449Z,23.80
2018-07-23T21:48:09.161Z,23.90
2018-07-23T21:52:17.822Z,23.70
2018-07-23T21:54:22.540Z,23.80
2018-07-23T21:56:26.955Z,23.70
2018-07-23T21:58:31.253Z,23.80
2018-07-23T22:00:37.828Z,23.50
2018-07-23T22:02:42.255Z,23.60
2018-07-23T22:04:46.835Z,23.60
2018-07-23T22:06:51.088Z,23.60
2018-07-23T22:08:56.293Z,23.60
2018-07-23T22:11:00.874Z,23.40
2018-07-23T22:13:05.945Z,23.10
2018-07-23T22:15:11.304Z,23.00
2018-07-23T22:17:15.757Z,23.10
2018-07-23T22:19:20.313Z,23.00
2018-07-23T22:21:24.569Z,22.90
2018-07-23T22:23:29.175Z,22.70
2018-07-23T22:25:34.001Z,22.70
2018-07-23T22:27:38.757Z,22.60
2018-07-23T22:29:43.307Z,22.70
2018-07-23T22:31:47.711Z,22.90
2018-07-23T22:33:52.074Z,22.70
2018-07-23T22:35:56.397Z,22.60
2018-07-23T22:38:00.601Z,22.50
2018-07-23T22:40:05.253Z,22.60
2018-07-23T22:42:09.555Z,22.70
2018-07-23T22:44:14.016Z,22.40
2018-07-23T22:46:18.237Z,22.60
2018-07-23T22:48:22.821Z,22.60
2018-07-23T22:50:27.065Z,22.70
2018-07-23T22:52:31.317Z,22.70
2018-07-23T22:54:35.939Z,22.80
2018-07-23T22:56:39.854Z,22.50
2018-07-23T22:58:44.200Z,22.50
2018-07-23T23:00:48.493Z,22.50
2018-07-23T23:02:53.125Z,22.40
2018-07-23T23:04:57.137Z,22.40
2018-07-23T23:07:01.686Z,22.40
2018-07-23T23:09:08.005Z,22.10
2018-07-23T23:11:12.248Z,22.10
2018-07-23T23:13:16.806Z,22.00
2018-07-23T23:15:21.098Z,21.80
2018-07-23T23:17:25.381Z,22.00
2018-07-23T23:19:30.234Z,22.20
2018-07-23T23:21:34.583Z,22.10
2018-07-23T23:23:38.813Z,21.70
2018-07-23T23:25:43.141Z,21.90
2018-07-23T23:27:49.019Z,21.90
2018-07-23T23:29:53.522Z,22.00
2018-07-23T23:31:57.729Z,22.20
2018-07-23T23:34:01.985Z,22.30
2018-07-23T23:36:06.225Z,22.40
2018-07-23T23:38:10.461Z,22.50
2018-07-23T23:40:15.053Z,22.40
2018-07-23T23:42:19.313Z,22.20
2018-07-23T23:44:23.614Z,22.20
2018-07-23T23:46:27.918Z,22.00
2018-07-23T23:48:32.493Z,21.90
2018-07-23T23:50:37.058Z,21.90
2018-07-23T23:52:41.036Z,22.10
2018-07-23T23:54:45.297Z,22.30
2018-07-23T23:56:49.538Z,22.30
2018-07-23T23:58:54.277Z,22.10
